sensor_id;sensor_type;location;lat;lon;timestamp;pressure;altitude;pressure_sealevel;temperature;humidity
63652;BME280;49801;37.536;-122.304;2023-01-29T00:00:06;101373.41;;;12.23;64.29
63652;BME280;49801;37.536;-122.304;2023-01-29T00:00:34;101369.50;;;12.25;64.09
63652;BME280;49801;37.536;-122.304;2023-01-29T00:01:04;101378.69;;;12.24;63.89
63652;BME280;49801;37.536;-122.304;2023-01-29T00:01:31;101379.00;;;12.21;64.17
63652;BME280;49801;37.536;-122.304;2023-01-29T00:01:57;101373.06;;;12.17;64.26
63652;BME280;49801;37.536;-122.304;2023-01-29T00:02:24;101370.50;;;12.16;64.46
63652;BME280;49801;37.536;-122.304;2023-01-29T00:02:50;101372.56;;;12.14;64.35
63652;BME280;49801;37.536;-122.304;2023-01-29T00:03:16;101364.91;;;12.09;64.59
63652;BME280;49801;37.536;-122.304;2023-01-29T00:03:42;101372.38;;;12.07;64.36
63652;BME280;49801;37.536;-122.304;2023-01-29T00:04:09;101378.78;;;11.98;64.58
63652;BME280;49801;37.536;-122.304;2023-01-29T00:04:35;101380.50;;;11.99;64.61
63652;BME280;49801;37.536;-122.304;2023-01-29T00:05:02;101376.41;;;12.03;64.60
63652;BME280;49801;37.536;-122.304;2023-01-29T00:05:28;101359.44;;;11.93;64.80
63652;BME280;49801;37.536;-122.304;2023-01-29T00:05:55;101373.53;;;12.05;64.44
63652;BME280;49801;37.536;-122.304;2023-01-29T00:06:21;101358.44;;;11.94;64.22
63652;BME280;49801;37.536;-122.304;2023-01-29T00:06:48;101372.38;;;12.07;64.36
63652;BME280;49801;37.536;-122.304;2023-01-29T00:07:14;101374.41;;;12.05;64.54
63652;BME280;49801;37.536;-122.304;2023-01-29T00:07:40;101378.13;;;12.04;64.43
63652;BME280;49801;37.536;-122.304;2023-01-29T00:08:06;101369.31;;;12.02;64.35
63652;BME280;49801;37.536;-122.304;2023-01-29T00:08:37;101367.59;;;12.01;64.64
63652;BME280;49801;37.536;-122.304;2023-01-29T00:09:03;101375.56;;;12.03;64.51
63652;BME280;49801;37.536;-122.304;2023-01-29T00:09:29;101380.69;;;12.06;64.50
63652;BME280;49801;37.536;-122.304;2023-01-29T00:09:56;101374.22;;;11.98;64.61
63652;BME280;49801;37.536;-122.304;2023-01-29T00:10:24;101375.41;;;12.04;64.73
63652;BME280;49801;37.536;-122.304;2023-01-29T00:10:50;101368.97;;;12.05;64.62
63652;BME280;49801;37.536;-122.304;2023-01-29T00:11:17;101370.81;;;11.96;64.33
63652;BME280;49801;37.536;-122.304;2023-01-29T00:11:44;101366.16;;;11.80;64.57
63652;BME280;49801;37.536;-122.304;2023-01-29T00:12:11;101374.16;;;11.90;64.44
63652;BME280;49801;37.536;-122.304;2023-01-29T00:12:37;101346.50;;;11.78;64.50
63652;BME280;49801;37.536;-122.304;2023-01-29T00:13:04;101374.66;;;11.86;64.59
63652;BME280;49801;37.536;-122.304;2023-01-29T00:13:30;101359.38;;;11.76;64.73
63652;BME280;49801;37.536;-122.304;2023-01-29T00:13:57;101371.91;;;11.77;64.89
63652;BME280;49801;37.536;-122.304;2023-01-29T00:14:23;101373.28;;;11.73;64.81
63652;BME280;49801;37.536;-122.304;2023-01-29T00:14:50;101370.34;;;11.67;64.88
63652;BME280;49801;37.536;-122.304;2023-01-29T00:15:17;101359.66;;;11.65;64.90
63652;BME280;49801;37.536;-122.304;2023-01-29T00:15:56;101381.72;;;11.70;65.16
63652;BME280;49801;37.536;-122.304;2023-01-29T00:16:23;101366.13;;;11.64;65.32
63652;BME280;49801;37.536;-122.304;2023-01-29T00:16:49;101375.31;;;11.71;65.41
63652;BME280;49801;37.536;-122.304;2023-01-29T00:17:15;101381.72;;;11.70;65.53
63652;BME280;49801;37.536;-122.304;2023-01-29T00:17:41;101380.06;;;11.69;65.35
63652;BME280;49801;37.536;-122.304;2023-01-29T00:18:07;101372.91;;;11.68;65.10
63652;BME280;49801;37.536;-122.304;2023-01-29T00:18:38;101383.91;;;11.67;65.50
63652;BME280;49801;37.536;-122.304;2023-01-29T00:19:04;101378.50;;;11.67;65.39
63652;BME280;49801;37.536;-122.304;2023-01-29T00:19:30;101389.88;;;11.70;65.42
63652;BME280;49801;37.536;-122.304;2023-01-29T00:19:56;101383.44;;;11.71;65.47
63652;BME280;49801;37.536;-122.304;2023-01-29T00:20:23;101389.72;;;11.72;65.28
63652;BME280;49801;37.536;-122.304;2023-01-29T00:20:49;101394.63;;;11.68;65.49
63652;BME280;49801;37.536;-122.304;2023-01-29T00:21:17;101392.06;;;11.67;65.72
63652;BME280;49801;37.536;-122.304;2023-01-29T00:21:44;101390.91;;;11.69;65.60
63652;BME280;49801;37.536;-122.304;2023-01-29T00:22:10;101394.63;;;11.68;65.32
63652;BME280;49801;37.536;-122.304;2023-01-29T00:22:37;101397.28;;;11.60;65.36
63652;BME280;49801;37.536;-122.304;2023-01-29T00:23:03;101395.25;;;11.62;65.45
63652;BME280;49801;37.536;-122.304;2023-01-29T00:23:32;101391.53;;;11.63;65.34
63652;BME280;49801;37.536;-122.304;2023-01-29T00:23:59;101391.53;;;11.63;65.26
63652;BME280;49801;37.536;-122.304;2023-01-29T00:24:25;101392.22;;;11.65;65.22
63652;BME280;49801;37.536;-122.304;2023-01-29T00:24:51;101394.94;;;11.65;65.38
63652;BME280;49801;37.536;-122.304;2023-01-29T00:25:17;101389.19;;;11.68;65.36
63652;BME280;49801;37.536;-122.304;2023-01-29T00:25:44;101383.59;;;11.70;65.43
63652;BME280;49801;37.536;-122.304;2023-01-29T00:26:11;101382.91;;;11.68;65.30
63652;BME280;49801;37.536;-122.304;2023-01-29T00:26:37;101388.88;;;11.71;65.26
63652;BME280;49801;37.536;-122.304;2023-01-29T00:27:04;101390.53;;;11.64;65.45
63652;BME280;49801;37.536;-122.304;2023-01-29T00:27:30;101382.38;;;11.56;65.29
63652;BME280;49801;37.536;-122.304;2023-01-29T00:27:57;101387.47;;;11.67;65.41
63652;BME280;49801;37.536;-122.304;2023-01-29T00:28:23;101393.25;;;11.64;65.67
63652;BME280;49801;37.536;-122.304;2023-01-29T00:28:49;101378.31;;;11.60;65.71
63652;BME280;49801;37.536;-122.304;2023-01-29T00:29:15;101396.66;;;11.66;65.51
63652;BME280;49801;37.536;-122.304;2023-01-29T00:29:42;101392.59;;;11.70;65.47
63652;BME280;49801;37.536;-122.304;2023-01-29T00:30:09;101391.41;;;11.73;65.64
63652;BME280;49801;37.536;-122.304;2023-01-29T00:30:38;101388.53;;;11.74;65.65
63652;BME280;49801;37.536;-122.304;2023-01-29T00:31:09;101374.94;;;11.66;65.75
63652;BME280;49801;37.536;-122.304;2023-01-29T00:31:35;101368.81;;;11.56;65.71
63652;BME280;49801;37.536;-122.304;2023-01-29T00:32:01;101386.97;;;11.63;65.77
63652;BME280;49801;37.536;-122.304;2023-01-29T00:32:28;101390.53;;;11.64;65.75
63652;BME280;49801;37.536;-122.304;2023-01-29T00:32:54;101369.81;;;11.55;65.57
63652;BME280;49801;37.536;-122.304;2023-01-29T00:33:20;101366.41;;;11.53;65.40
63652;BME280;49801;37.536;-122.304;2023-01-29T00:33:47;101392.59;;;11.70;65.32
63652;BME280;49801;37.536;-122.304;2023-01-29T00:34:13;101390.19;;;11.59;65.08
63652;BME280;49801;37.536;-122.304;2023-01-29T00:34:39;101394.94;;;11.65;65.10
63652;BME280;49801;37.536;-122.304;2023-01-29T00:35:07;101392.22;;;11.65;64.81
63652;BME280;49801;37.536;-122.304;2023-01-29T00:35:34;101380.28;;;11.50;65.01
63652;BME280;49801;37.536;-122.304;2023-01-29T00:36:04;101391.47;;;11.47;64.83
63652;BME280;49801;37.536;-122.304;2023-01-29T00:36:30;101392.00;;;11.50;64.64
63652;BME280;49801;37.536;-122.304;2023-01-29T00:36:56;101368.72;;;11.39;64.55
63652;BME280;49801;37.536;-122.304;2023-01-29T00:37:29;101389.78;;;11.45;64.29
63652;BME280;49801;37.536;-122.304;2023-01-29T00:37:55;101375.13;;;11.30;64.73
63652;BME280;49801;37.536;-122.304;2023-01-29T00:38:22;101401.63;;;11.44;64.79
63652;BME280;49801;37.536;-122.304;2023-01-29T00:38:57;101371.44;;;11.31;64.65
63652;BME280;49801;37.536;-122.304;2023-01-29T00:39:23;101396.03;;;11.46;64.56
63652;BME280;49801;37.536;-122.304;2023-01-29T00:39:49;101393.84;;;11.50;64.67
63652;BME280;49801;37.536;-122.304;2023-01-29T00:40:18;101398.13;;;11.52;64.89
63652;BME280;49801;37.536;-122.304;2023-01-29T00:40:45;101398.44;;;11.49;64.84
63652;BME280;49801;37.536;-122.304;2023-01-29T00:41:30;101352.25;;;11.24;64.71
63652;BME280;49801;37.536;-122.304;2023-01-29T00:42:15;101395.22;;;11.45;64.74
63652;BME280;49801;37.536;-122.304;2023-01-29T00:42:59;101369.13;;;11.18;64.92
63652;BME280;49801;37.536;-122.304;2023-01-29T00:43:43;101395.53;;;11.42;64.86
63652;BME280;49801;37.536;-122.304;2023-01-29T00:44:28;101399.94;;;11.43;65.13
63652;BME280;49801;37.536;-122.304;2023-01-29T00:45:33;101402.13;;;11.40;65.20
63652;BME280;49801;37.536;-122.304;2023-01-29T00:46:01;101360.47;;;11.15;65.24
63652;BME280;49801;37.536;-122.304;2023-01-29T00:46:27;101385.47;;;11.26;65.09
63652;BME280;49801;37.536;-122.304;2023-01-29T00:46:53;101396.16;;;11.28;65.63
63652;BME280;49801;37.536;-122.304;2023-01-29T00:47:19;101397.81;;;11.21;65.67
63652;BME280;49801;37.536;-122.304;2023-01-29T00:48:02;101403.84;;;11.15;65.69
63652;BME280;49801;37.536;-122.304;2023-01-29T00:48:28;101397.75;;;11.13;65.71
63652;BME280;49801;37.536;-122.304;2023-01-29T00:48:54;101396.41;;;11.17;65.65
63652;BME280;49801;37.536;-122.304;2023-01-29T00:49:20;101391.66;;;11.11;65.87
63652;BME280;49801;37.536;-122.304;2023-01-29T00:49:46;101398.44;;;11.15;65.73
63652;BME280;49801;37.536;-122.304;2023-01-29T00:50:12;101395.41;;;11.18;65.82
63652;BME280;49801;37.536;-122.304;2023-01-29T00:50:39;101392.38;;;11.21;65.73
63652;BME280;49801;37.536;-122.304;2023-01-29T00:51:05;101396.94;;;11.20;65.50
63652;BME280;49801;37.536;-122.304;2023-01-29T00:51:31;101399.44;;;11.14;66.05
63652;BME280;49801;37.536;-122.304;2023-01-29T00:51:57;101400.94;;;11.08;65.83
63652;BME280;49801;37.536;-122.304;2023-01-29T00:52:42;101401.41;;;11.03;66.20
63652;BME280;49801;37.536;-122.304;2023-01-29T00:53:08;101391.22;;;10.97;66.28
63652;BME280;49801;37.536;-122.304;2023-01-29T00:53:34;101403.41;;;11.01;66.08
63652;BME280;49801;37.536;-122.304;2023-01-29T00:54:01;101396.63;;;10.97;66.43
63652;BME280;49801;37.536;-122.304;2023-01-29T00:54:27;101394.59;;;10.99;66.34
63652;BME280;49801;37.536;-122.304;2023-01-29T00:54:55;101362.63;;;10.77;66.26
63652;BME280;49801;37.536;-122.304;2023-01-29T00:55:21;101395.75;;;10.97;66.29
63652;BME280;49801;37.536;-122.304;2023-01-29T00:55:48;101389.81;;;10.93;66.56
63652;BME280;49801;37.536;-122.304;2023-01-29T00:56:14;101389.13;;;10.91;66.51
63652;BME280;49801;37.536;-122.304;2023-01-29T00:56:40;101398.81;;;10.94;66.60
63652;BME280;49801;37.536;-122.304;2023-01-29T00:57:06;101391.53;;;10.94;66.42
63652;BME280;49801;37.536;-122.304;2023-01-29T00:57:33;101392.91;;;10.98;66.75
63652;BME280;49801;37.536;-122.304;2023-01-29T00:57:59;101389.66;;;10.95;66.39
63652;BME280;49801;37.536;-122.304;2023-01-29T00:58:26;101389.44;;;10.88;66.98
63652;BME280;49801;37.536;-122.304;2023-01-29T00:58:58;101396.94;;;10.94;66.73
63652;BME280;49801;37.536;-122.304;2023-01-29T00:59:24;101383.66;;;10.83;66.85
63652;BME280;49801;37.536;-122.304;2023-01-29T00:59:51;101375.50;;;10.75;66.90
63652;BME280;49801;37.536;-122.304;2023-01-29T01:00:17;101401.53;;;10.94;66.84
63652;BME280;49801;37.536;-122.304;2023-01-29T01:00:44;101397.56;;;10.88;66.96
63652;BME280;49801;37.536;-122.304;2023-01-29T01:01:10;101408.47;;;10.96;66.98
63652;BME280;49801;37.536;-122.304;2023-01-29T01:01:36;101375.16;;;10.78;67.07
63652;BME280;49801;37.536;-122.304;2023-01-29T01:02:21;101409.16;;;10.98;66.72
63652;BME280;49801;37.536;-122.304;2023-01-29T01:03:06;101403.56;;;10.92;66.74
63652;BME280;49801;37.536;-122.304;2023-01-29T01:03:32;101404.38;;;10.92;66.83
63652;BME280;49801;37.536;-122.304;2023-01-29T01:04:00;101393.13;;;10.79;66.92
63652;BME280;49801;37.536;-122.304;2023-01-29T01:04:26;101409.06;;;10.82;66.67
63652;BME280;49801;37.536;-122.304;2023-01-29T01:04:52;101407.88;;;10.84;66.74
63652;BME280;49801;37.536;-122.304;2023-01-29T01:05:18;101402.25;;;10.78;66.57
63652;BME280;49801;37.536;-122.304;2023-01-29T01:05:45;101403.94;;;10.79;66.49
63652;BME280;49801;37.536;-122.304;2023-01-29T01:06:11;101406.50;;;10.80;66.68
63652;BME280;49801;37.536;-122.304;2023-01-29T01:06:38;101416.44;;;10.72;66.95
63652;BME280;49801;37.536;-122.304;2023-01-29T01:07:05;101392.97;;;10.62;66.74
63652;BME280;49801;37.536;-122.304;2023-01-29T01:07:32;101409.81;;;10.74;66.39
63652;BME280;49801;37.536;-122.304;2023-01-29T01:07:58;101410.56;;;10.76;66.54
63652;BME280;49801;37.536;-122.304;2023-01-29T01:08:24;101404.38;;;10.66;66.48
63652;BME280;49801;37.536;-122.304;2023-01-29T01:09:09;101399.34;;;10.53;66.75
63652;BME280;49801;37.536;-122.304;2023-01-29T01:09:54;101412.97;;;10.61;67.22
63652;BME280;49801;37.536;-122.304;2023-01-29T01:10:38;101407.38;;;10.63;67.05
63652;BME280;49801;37.536;-122.304;2023-01-29T01:11:05;101408.38;;;10.62;67.12
63652;BME280;49801;37.536;-122.304;2023-01-29T01:11:32;101381.72;;;10.49;67.06
63652;BME280;49801;37.536;-122.304;2023-01-29T01:11:59;101404.75;;;10.71;67.15
63652;BME280;49801;37.536;-122.304;2023-01-29T01:12:25;101408.69;;;10.77;66.78
63652;BME280;49801;37.536;-122.304;2023-01-29T01:12:57;101408.00;;;10.75;66.86
63652;BME280;49801;37.536;-122.304;2023-01-29T01:13:23;101402.50;;;10.66;67.11
63652;BME280;49801;37.536;-122.304;2023-01-29T01:13:49;101401.19;;;10.70;66.96
63652;BME280;49801;37.536;-122.304;2023-01-29T01:14:16;101402.50;;;10.66;67.20
63652;BME280;49801;37.536;-122.304;2023-01-29T01:14:42;101407.25;;;10.64;67.06
63652;BME280;49801;37.536;-122.304;2023-01-29T01:15:09;101401.09;;;10.62;66.78
63652;BME280;49801;37.536;-122.304;2023-01-29T01:15:37;101392.78;;;10.56;66.78
63652;BME280;49801;37.536;-122.304;2023-01-29T01:16:16;101398.09;;;10.65;66.79
63652;BME280;49801;37.536;-122.304;2023-01-29T01:16:47;101394.91;;;10.70;66.92
63652;BME280;49801;37.536;-122.304;2023-01-29T01:17:13;101399.81;;;10.66;66.96
63652;BME280;49801;37.536;-122.304;2023-01-29T01:17:40;101395.22;;;10.67;66.76
63652;BME280;49801;37.536;-122.304;2023-01-29T01:18:06;101387.91;;;10.59;67.23
63652;BME280;49801;37.536;-122.304;2023-01-29T01:18:32;101390.13;;;10.64;67.07
63652;BME280;49801;37.536;-122.304;2023-01-29T01:18:58;101389.28;;;10.63;67.38
63652;BME280;49801;37.536;-122.304;2023-01-29T01:19:24;101395.00;;;10.60;67.19
63652;BME280;49801;37.536;-122.304;2023-01-29T01:19:51;101378.63;;;10.44;66.99
63652;BME280;49801;37.536;-122.304;2023-01-29T01:20:17;101391.22;;;10.53;67.35
63652;BME280;49801;37.536;-122.304;2023-01-29T01:20:43;101397.66;;;10.52;67.67
63652;BME280;49801;37.536;-122.304;2023-01-29T01:21:09;101390.22;;;10.54;67.52
63652;BME280;49801;37.536;-122.304;2023-01-29T01:21:36;101398.66;;;10.51;67.06
63652;BME280;49801;37.536;-122.304;2023-01-29T01:22:02;101390.53;;;10.51;67.14
63652;BME280;49801;37.536;-122.304;2023-01-29T01:22:29;101390.59;;;10.41;67.17
63652;BME280;49801;37.536;-122.304;2023-01-29T01:22:56;101390.22;;;10.36;67.29
63652;BME280;49801;37.536;-122.304;2023-01-29T01:23:22;101390.38;;;10.35;67.19
63652;BME280;49801;37.536;-122.304;2023-01-29T01:23:48;101394.09;;;10.34;67.62
63652;BME280;49801;37.536;-122.304;2023-01-29T01:24:16;101393.81;;;10.37;67.35
63652;BME280;49801;37.536;-122.304;2023-01-29T01:24:42;101369.94;;;10.22;67.24
63652;BME280;49801;37.536;-122.304;2023-01-29T01:25:08;101395.47;;;10.38;67.26
63652;BME280;49801;37.536;-122.304;2023-01-29T01:25:35;101380.00;;;10.30;67.10
63652;BME280;49801;37.536;-122.304;2023-01-29T01:26:01;101394.66;;;10.37;67.04
63652;BME280;49801;37.536;-122.304;2023-01-29T01:26:27;101397.19;;;10.39;67.19
63652;BME280;49801;37.536;-122.304;2023-01-29T01:26:53;101384.13;;;10.34;67.12
63652;BME280;49801;37.536;-122.304;2023-01-29T01:27:19;101381.84;;;10.29;67.41
63652;BME280;49801;37.536;-122.304;2023-01-29T01:27:46;101396.03;;;10.41;67.26
63652;BME280;49801;37.536;-122.304;2023-01-29T01:28:12;101394.34;;;10.40;67.51
63652;BME280;49801;37.536;-122.304;2023-01-29T01:28:38;101394.19;;;10.42;67.35
63652;BME280;49801;37.536;-122.304;2023-01-29T01:29:04;101397.44;;;10.45;67.31
63652;BME280;49801;37.536;-122.304;2023-01-29T01:29:31;101393.47;;;10.40;67.54
63652;BME280;49801;37.536;-122.304;2023-01-29T01:29:57;101398.03;;;10.39;67.35
63652;BME280;49801;37.536;-122.304;2023-01-29T01:30:24;101398.88;;;10.40;67.31
63652;BME280;49801;37.536;-122.304;2023-01-29T01:30:50;101379.88;;;10.31;67.91
63652;BME280;49801;37.536;-122.304;2023-01-29T01:31:16;101401.22;;;10.35;67.77
63652;BME280;49801;37.536;-122.304;2023-01-29T01:31:43;101400.38;;;10.34;67.88
63652;BME280;49801;37.536;-122.304;2023-01-29T01:32:10;101400.06;;;10.37;67.58
63652;BME280;49801;37.536;-122.304;2023-01-29T01:32:36;101392.09;;;10.36;67.54
63652;BME280;49801;37.536;-122.304;2023-01-29T01:33:03;101399.91;;;10.39;67.98
63652;BME280;49801;37.536;-122.304;2023-01-29T01:33:29;101395.78;;;10.35;68.14
63652;BME280;49801;37.536;-122.304;2023-01-29T01:33:55;101402.91;;;10.36;68.21
63652;BME280;49801;37.536;-122.304;2023-01-29T01:34:21;101402.91;;;10.36;68.20
63652;BME280;49801;37.536;-122.304;2023-01-29T01:34:47;101391.63;;;10.40;67.96
63652;BME280;49801;37.536;-122.304;2023-01-29T01:35:13;101396.31;;;10.38;68.27
63652;BME280;49801;37.536;-122.304;2023-01-29T01:35:40;101382.59;;;10.31;67.84
63652;BME280;49801;37.536;-122.304;2023-01-29T01:36:07;101380.09;;;10.38;68.05
63652;BME280;49801;37.536;-122.304;2023-01-29T01:36:38;101394.22;;;10.50;67.81
63652;BME280;49801;37.536;-122.304;2023-01-29T01:37:04;101396.94;;;10.50;67.69
63652;BME280;49801;37.536;-122.304;2023-01-29T01:37:30;101397.66;;;10.52;67.63
63652;BME280;49801;37.536;-122.304;2023-01-29T01:37:56;101401.06;;;10.54;67.65
63652;BME280;49801;37.536;-122.304;2023-01-29T01:38:23;101396.25;;;10.48;67.92
63652;BME280;49801;37.536;-122.304;2023-01-29T01:38:49;101394.22;;;10.50;67.76
63652;BME280;49801;37.536;-122.304;2023-01-29T01:39:15;101398.28;;;10.46;68.04
63652;BME280;49801;37.536;-122.304;2023-01-29T01:39:41;101390.53;;;10.51;67.73
63652;BME280;49801;37.536;-122.304;2023-01-29T01:40:12;101399.19;;;10.55;67.73
63652;BME280;49801;37.536;-122.304;2023-01-29T01:40:46;101401.66;;;10.48;67.71
63652;BME280;49801;37.536;-122.304;2023-01-29T01:41:17;101396.25;;;10.48;67.64
63652;BME280;49801;37.536;-122.304;2023-01-29T01:41:44;101401.97;;;10.45;68.09
63652;BME280;49801;37.536;-122.304;2023-01-29T01:42:12;101401.81;;;10.46;67.81
63652;BME280;49801;37.536;-122.304;2023-01-29T01:42:39;101401.13;;;10.44;68.25
63652;BME280;49801;37.536;-122.304;2023-01-29T01:43:05;101397.66;;;10.52;68.00
63652;BME280;49801;37.536;-122.304;2023-01-29T01:45:03;101400.28;;;10.44;68.09
63652;BME280;49801;37.536;-122.304;2023-01-29T01:45:33;101408.72;;;10.41;67.91
63652;BME280;49801;37.536;-122.304;2023-01-29T01:46:00;101414.81;;;10.43;67.78
63652;BME280;49801;37.536;-122.304;2023-01-29T01:46:36;101405.31;;;10.39;67.82
63652;BME280;49801;37.536;-122.304;2023-01-29T01:47:02;101419.41;;;10.42;67.61
63652;BME280;49801;37.536;-122.304;2023-01-29T01:47:39;101419.94;;;10.46;67.60
63652;BME280;49801;37.536;-122.304;2023-01-29T01:48:37;101411.81;;;10.46;67.76
63652;BME280;49801;37.536;-122.304;2023-01-29T01:49:32;101418.22;;;10.45;67.58
63652;BME280;49801;37.536;-122.304;2023-01-29T01:50:06;101412.03;;;10.35;67.65
63652;BME280;49801;37.536;-122.304;2023-01-29T01:50:45;101418.63;;;10.32;67.69
63652;BME280;49801;37.536;-122.304;2023-01-29T01:51:15;101427.16;;;10.27;67.93
63652;BME280;49801;37.536;-122.304;2023-01-29T01:51:45;101417.56;;;10.15;67.78
63652;BME280;49801;37.536;-122.304;2023-01-29T01:52:14;101426.09;;;10.20;67.95
63652;BME280;49801;37.536;-122.304;2023-01-29T01:52:45;101421.75;;;10.27;68.21
63652;BME280;49801;37.536;-122.304;2023-01-29T01:53:15;101420.59;;;10.30;67.97
63652;BME280;49801;37.536;-122.304;2023-01-29T01:53:54;101423.19;;;10.31;67.99
63652;BME280;49801;37.536;-122.304;2023-01-29T01:54:28;101421.75;;;10.27;68.04
63652;BME280;49801;37.536;-122.304;2023-01-29T01:54:57;101416.75;;;10.32;67.94
63652;BME280;49801;37.536;-122.304;2023-01-29T01:55:27;101417.84;;;10.40;67.94
63652;BME280;49801;37.536;-122.304;2023-01-29T01:55:55;101418.56;;;10.42;67.69
63652;BME280;49801;37.536;-122.304;2023-01-29T01:56:29;101413.13;;;10.42;67.62
63652;BME280;49801;37.536;-122.304;2023-01-29T01:57:10;101412.75;;;10.37;67.75
63652;BME280;49801;37.536;-122.304;2023-01-29T01:57:42;101405.03;;;10.42;67.75
63652;BME280;49801;37.536;-122.304;2023-01-29T01:58:17;101409.41;;;10.43;67.95
63652;BME280;49801;37.536;-122.304;2023-01-29T01:58:49;101400.75;;;10.39;68.30
63652;BME280;49801;37.536;-122.304;2023-01-29T01:59:17;101397.06;;;10.40;67.94
63652;BME280;49801;37.536;-122.304;2023-01-29T01:59:54;101394.94;;;10.34;68.23
63652;BME280;49801;37.536;-122.304;2023-01-29T02:00:24;101396.91;;;10.42;67.78
63652;BME280;49801;37.536;-122.304;2023-01-29T02:00:50;101385.56;;;10.46;67.60
63652;BME280;49801;37.536;-122.304;2023-01-29T02:01:17;101389.16;;;10.47;67.80
63652;BME280;49801;37.536;-122.304;2023-01-29T02:01:49;101382.41;;;10.51;67.49
63652;BME280;49801;37.536;-122.304;2023-01-29T02:02:16;101384.44;;;10.49;67.31
63652;BME280;49801;37.536;-122.304;2023-01-29T02:03:01;101385.72;;;10.45;67.36
63652;BME280;49801;37.536;-122.304;2023-01-29T02:03:55;101376.38;;;10.39;67.59
63652;BME280;49801;37.536;-122.304;2023-01-29T02:04:45;101372.16;;;10.37;67.43
63652;BME280;49801;37.536;-122.304;2023-01-29T02:05:32;101373.53;;;10.41;67.43
63652;BME280;49801;37.536;-122.304;2023-01-29T02:06:17;101377.44;;;10.28;67.53
63652;BME280;49801;37.536;-122.304;2023-01-29T02:07:04;101373.03;;;10.27;67.45
63652;BME280;49801;37.536;-122.304;2023-01-29T02:07:51;101384.97;;;10.35;67.30
63652;BME280;49801;37.536;-122.304;2023-01-29T02:09:31;101384.94;;;10.17;67.84
63652;BME280;49801;37.536;-122.304;2023-01-29T02:10:13;101404.53;;;10.28;67.62
63652;BME280;49801;37.536;-122.304;2023-01-29T02:10:43;101408.22;;;10.27;67.65
63652;BME280;49801;37.536;-122.304;2023-01-29T02:11:10;101415.25;;;10.20;67.53
63652;BME280;49801;37.536;-122.304;2023-01-29T02:11:36;101420.66;;;10.20;67.56
63652;BME280;49801;37.536;-122.304;2023-01-29T02:12:09;101415.09;;;10.22;67.92
63652;BME280;49801;37.536;-122.304;2023-01-29T02:12:36;101403.06;;;10.16;67.72
63652;BME280;49801;37.536;-122.304;2023-01-29T02:13:04;101409.16;;;10.18;67.50
63652;BME280;49801;37.536;-122.304;2023-01-29T02:13:31;101416.63;;;10.24;67.77
63652;BME280;49801;37.536;-122.304;2023-01-29T02:13:57;101403.50;;;10.29;67.64
63652;BME280;49801;37.536;-122.304;2023-01-29T02:14:24;101399.78;;;10.30;67.65
63652;BME280;49801;37.536;-122.304;2023-01-29T02:14:50;101406.97;;;10.31;67.65
63652;BME280;49801;37.536;-122.304;2023-01-29T02:15:17;101408.34;;;10.36;67.19
63652;BME280;49801;37.536;-122.304;2023-01-29T02:15:44;101407.16;;;10.38;67.19
63652;BME280;49801;37.536;-122.304;2023-01-29T02:16:14;101412.13;;;10.43;67.29
63652;BME280;49801;37.536;-122.304;2023-01-29T02:16:40;101406.31;;;10.38;67.24
63652;BME280;49801;37.536;-122.304;2023-01-29T02:17:10;101394.69;;;10.27;67.44
63652;BME280;49801;37.536;-122.304;2023-01-29T02:17:36;101413.13;;;10.42;67.14
63652;BME280;49801;37.536;-122.304;2023-01-29T02:18:03;101412.97;;;10.43;67.15
63652;BME280;49801;37.536;-122.304;2023-01-29T02:18:29;101409.72;;;10.40;66.88
63652;BME280;49801;37.536;-122.304;2023-01-29T02:19:05;101413.13;;;10.42;67.07
63652;BME280;49801;37.536;-122.304;2023-01-29T02:19:41;101420.63;;;10.48;66.99
63652;BME280;49801;37.536;-122.304;2023-01-29T02:20:25;101421.66;;;10.47;66.70
63652;BME280;49801;37.536;-122.304;2023-01-29T02:21:22;101411.44;;;10.41;67.18
63652;BME280;49801;37.536;-122.304;2023-01-29T02:24:17;101421.72;;;10.37;67.26
63652;BME280;49801;37.536;-122.304;2023-01-29T02:27:15;101394.97;;;10.24;67.82
63652;BME280;49801;37.536;-122.304;2023-01-29T02:29:10;101405.34;;;10.29;67.65
63652;BME280;49801;37.536;-122.304;2023-01-29T02:29:56;101416.34;;;10.27;67.67
63652;BME280;49801;37.536;-122.304;2023-01-29T02:32:12;101405.22;;;10.30;67.73
63652;BME280;49801;37.536;-122.304;2023-01-29T02:33:23;101407.06;;;10.30;67.83
63652;BME280;49801;37.536;-122.304;2023-01-29T02:34:45;101398.84;;;10.31;67.31
63652;BME280;49801;37.536;-122.304;2023-01-29T02:37:03;101396.91;;;10.42;67.67
63652;BME280;49801;37.536;-122.304;2023-01-29T02:37:39;101395.19;;;10.41;67.35
63652;BME280;49801;37.536;-122.304;2023-01-29T02:38:29;101395.34;;;10.39;67.29
63652;BME280;49801;37.536;-122.304;2023-01-29T02:40:12;101390.84;;;10.30;66.75
63652;BME280;49801;37.536;-122.304;2023-01-29T02:40:45;101388.50;;;10.17;66.75
63652;BME280;49801;37.536;-122.304;2023-01-29T02:41:27;101373.50;;;10.05;67.10
63652;BME280;49801;37.536;-122.304;2023-01-29T02:42:00;101396.22;;;10.12;66.85
63652;BME280;49801;37.536;-122.304;2023-01-29T02:42:36;101384.03;;;10.08;66.91
63652;BME280;49801;37.536;-122.304;2023-01-29T02:43:07;101385.00;;;10.07;67.17
63652;BME280;49801;37.536;-122.304;2023-01-29T02:44:05;101376.88;;;10.07;66.84
63652;BME280;49801;37.536;-122.304;2023-01-29T02:46:20;101382.16;;;9.90;67.85